sensor_id;sensor_type;location;lat;lon;timestamp;P1;P2;P0
72485;PMS5003;60509;47.308;-122.428;2022-08-16T00:00:39;0;0;
72485;PMS5003;60509;47.308;-122.428;2022-08-16T00:03:02;0;0;
72485;PMS5003;60509;47.308;-122.428;2022-08-16T00:05:28;1;0;
72485;PMS5003;60509;47.308;-122.428;2022-08-16T00:07:52;0;0;
72485;PMS5003;60509;47.308;-122.428;2022-08-16T00:10:18;0;0;
72485;PMS5003;60509;47.308;-122.428;2022-08-16T00:12:43;0;0;
72485;PMS5003;60509;47.308;-122.428;2022-08-16T00:15:10;0;0;
72485;PMS5003;60509;47.308;-122.428;2022-08-16T00:17:33;0;0;
72485;PMS5003;60509;47.308;-122.428;2022-08-16T00:19:58;0;0;
72485;PMS5003;60509;47.308;-122.428;2022-08-16T00:22:24;0;0;
72485;PMS5003;60509;47.308;-122.428;2022-08-16T00:24:49;0;0;
72485;PMS5003;60509;47.308;-122.428;2022-08-16T00:27:15;0;0;
72485;PMS5003;60509;47.308;-122.428;2022-08-16T00:29:41;0;0;
72485;PMS5003;60509;47.308;-122.428;2022-08-16T00:32:07;0;0;
72485;PMS5003;60509;47.308;-122.428;2022-08-16T00:34:31;0;0;
72485;PMS5003;60509;47.308;-122.428;2022-08-16T00:36:57;0;0;
72485;PMS5003;60509;47.308;-122.428;2022-08-16T00:39:23;1;0;
72485;PMS5003;60509;47.308;-122.428;2022-08-16T00:41:49;0;0;
72485;PMS5003;60509;47.308;-122.428;2022-08-16T00:44:16;0;0;
72485;PMS5003;60509;47.308;-122.428;2022-08-16T00:46:45;0;0;
72485;PMS5003;60509;47.308;-122.428;2022-08-16T00:49:09;0;0;
72485;PMS5003;60509;47.308;-122.428;2022-08-16T00:51:33;0;0;
72485;PMS5003;60509;47.308;-122.428;2022-08-16T00:53:59;0;0;
72485;PMS5003;60509;47.308;-122.428;2022-08-16T00:56:26;0;0;
72485;PMS5003;60509;47.308;-122.428;2022-08-16T00:58:51;0;0;
72485;PMS5003;60509;47.308;-122.428;2022-08-16T01:01:17;0;0;
72485;PMS5003;60509;47.308;-122.428;2022-08-16T01:03:43;0;0;
72485;PMS5003;60509;47.308;-122.428;2022-08-16T01:06:09;0;0;
72485;PMS5003;60509;47.308;-122.428;2022-08-16T01:08:35;1;0;
72485;PMS5003;60509;47.308;-122.428;2022-08-16T01:11:01;0;0;
72485;PMS5003;60509;47.308;-122.428;2022-08-16T01:13:28;0;0;
72485;PMS5003;60509;47.308;-122.428;2022-08-16T01:15:55;0;0;
72485;PMS5003;60509;47.308;-122.428;2022-08-16T01:18:20;0;0;
72485;PMS5003;60509;47.308;-122.428;2022-08-16T01:20:46;0;0;
72485;PMS5003;60509;47.308;-122.428;2022-08-16T01:23:11;0;0;
72485;PMS5003;60509;47.308;-122.428;2022-08-16T01:25:36;0;0;
72485;PMS5003;60509;47.308;-122.428;2022-08-16T01:28:02;0;0;
72485;PMS5003;60509;47.308;-122.428;2022-08-16T01:30:27;0;0;
72485;PMS5003;60509;47.308;-122.428;2022-08-16T01:32:54;0;0;
72485;PMS5003;60509;47.308;-122.428;2022-08-16T01:35:21;0;0;
72485;PMS5003;60509;47.308;-122.428;2022-08-16T01:37:46;0;0;
72485;PMS5003;60509;47.308;-122.428;2022-08-16T01:40:12;0;0;
72485;PMS5003;60509;47.308;-122.428;2022-08-16T01:42:36;0;0;
72485;PMS5003;60509;47.308;-122.428;2022-08-16T01:45:01;0;0;
72485;PMS5003;60509;47.308;-122.428;2022-08-16T01:47:26;0;0;
72485;PMS5003;60509;47.308;-122.428;2022-08-16T01:49:52;0;0;
72485;PMS5003;60509;47.308;-122.428;2022-08-16T01:52:18;1;1;
72485;PMS5003;60509;47.308;-122.428;2022-08-16T01:54:44;0;0;
72485;PMS5003;60509;47.308;-122.428;2022-08-16T01:57:10;9;8;
72485;PMS5003;60509;47.308;-122.428;2022-08-16T01:59:35;2;2;
72485;PMS5003;60509;47.308;-122.428;2022-08-16T02:02:00;10;10;
72485;PMS5003;60509;47.308;-122.428;2022-08-16T02:04:25;0;0;
72485;PMS5003;60509;47.308;-122.428;2022-08-16T02:06:50;0;0;
72485;PMS5003;60509;47.308;-122.428;2022-08-16T02:09:15;0;0;
72485;PMS5003;60509;47.308;-122.428;2022-08-16T02:11:41;4;4;
72485;PMS5003;60509;47.308;-122.428;2022-08-16T02:14:05;0;0;
72485;PMS5003;60509;47.308;-122.428;2022-08-16T02:16:30;0;0;
72485;PMS5003;60509;47.308;-122.428;2022-08-16T02:18:55;0;0;
72485;PMS5003;60509;47.308;-122.428;2022-08-16T02:21:20;0;0;
72485;PMS5003;60509;47.308;-122.428;2022-08-16T02:23:45;57;57;
72485;PMS5003;60509;47.308;-122.428;2022-08-16T02:26:11;63;63;
72485;PMS5003;60509;47.308;-122.428;2022-08-16T02:28:35;131;131;
72485;PMS5003;60509;47.308;-122.428;2022-08-16T02:31:03;39;39;
72485;PMS5003;60509;47.308;-122.428;2022-08-16T02:33:26;156;156;
72485;PMS5003;60509;47.308;-122.428;2022-08-16T02:35:51;156;156;
72485;PMS5003;60509;47.308;-122.428;2022-08-16T02:38:16;4992;4992;
72485;PMS5003;60509;47.308;-122.428;2022-08-16T02:40:41;4984;4984;
72485;PMS5003;60509;47.308;-122.428;2022-08-16T02:43:06;4984;4984;
72485;PMS5003;60509;47.308;-122.428;2022-08-16T02:45:31;4976;4976;
72485;PMS5003;60509;47.308;-122.428;2022-08-16T02:47:57;4984;4984;
72485;PMS5003;60509;47.308;-122.428;2022-08-16T02:50:22;4976;4976;
72485;PMS5003;60509;47.308;-122.428;2022-08-16T02:52:47;4984;4984;
72485;PMS5003;60509;47.308;-122.428;2022-08-16T02:55:12;4992;4992;
72485;PMS5003;60509;47.308;-122.428;2022-08-16T02:57:38;4992;4992;
72485;PMS5003;60509;47.308;-122.428;2022-08-16T03:00:03;4992;4992;
72485;PMS5003;60509;47.308;-122.428;2022-08-16T03:02:28;4992;4992;
72485;PMS5003;60509;47.308;-122.428;2022-08-16T03:04:53;5000;5000;
72485;PMS5003;60509;47.308;-122.428;2022-08-16T03:07:19;4992;4992;
72485;PMS5003;60509;47.308;-122.428;2022-08-16T03:09:44;5000;5000;
72485;PMS5003;60509;47.308;-122.428;2022-08-16T03:12:10;4984;4984;
72485;PMS5003;60509;47.308;-122.428;2022-08-16T03:14:35;4976;4976;
72485;PMS5003;60509;47.308;-122.428;2022-08-16T03:17:00;4992;4992;
72485;PMS5003;60509;47.308;-122.428;2022-08-16T03:19:27;4992;4992;
72485;PMS5003;60509;47.308;-122.428;2022-08-16T03:21:51;5000;5000;
72485;PMS5003;60509;47.308;-122.428;2022-08-16T03:24:17;4992;4992;
72485;PMS5003;60509;47.308;-122.428;2022-08-16T03:26:42;4992;4992;
72485;PMS5003;60509;47.308;-122.428;2022-08-16T03:29:08;4984;4984;
72485;PMS5003;60509;47.308;-122.428;2022-08-16T03:31:33;4992;4992;
72485;PMS5003;60509;47.308;-122.428;2022-08-16T03:33:59;5000;5000;
72485;PMS5003;60509;47.308;-122.428;2022-08-16T03:36:25;5000;5000;
72485;PMS5003;60509;47.308;-122.428;2022-08-16T03:38:50;5000;5000;
72485;PMS5003;60509;47.308;-122.428;2022-08-16T03:41:16;4992;4992;
72485;PMS5003;60509;47.308;-122.428;2022-08-16T03:43:41;4984;4984;
72485;PMS5003;60509;47.308;-122.428;2022-08-16T03:46:07;4984;4984;
72485;PMS5003;60509;47.308;-122.428;2022-08-16T03:48:33;4984;4984;
72485;PMS5003;60509;47.308;-122.428;2022-08-16T03:50:58;5000;5000;
72485;PMS5003;60509;47.308;-122.428;2022-08-16T03:53:24;4992;4992;
72485;PMS5003;60509;47.308;-122.428;2022-08-16T03:55:49;5000;5000;
72485;PMS5003;60509;47.308;-122.428;2022-08-16T03:58:15;4992;4992;
72485;PMS5003;60509;47.308;-122.428;2022-08-16T04:00:40;4984;4984;
72485;PMS5003;60509;47.308;-122.428;2022-08-16T04:03:06;5000;5000;
72485;PMS5003;60509;47.308;-122.428;2022-08-16T04:05:32;4992;4992;
72485;PMS5003;60509;47.308;-122.428;2022-08-16T04:07:57;5000;5000;
72485;PMS5003;60509;47.308;-122.428;2022-08-16T04:10:23;4992;4992;
72485;PMS5003;60509;47.308;-122.428;2022-08-16T04:12:49;4992;4992;
72485;PMS5003;60509;47.308;-122.428;2022-08-16T04:15:15;5000;5000;
72485;PMS5003;60509;47.308;-122.428;2022-08-16T04:17:40;5000;5000;
72485;PMS5003;60509;47.308;-122.428;2022-08-16T04:20:06;4984;4984;
72485;PMS5003;60509;47.308;-122.428;2022-08-16T04:22:31;4984;4984;
72485;PMS5003;60509;47.308;-122.428;2022-08-16T04:24:57;4992;4992;
72485;PMS5003;60509;47.308;-122.428;2022-08-16T04:27:23;4984;4984;
72485;PMS5003;60509;47.308;-122.428;2022-08-16T04:29:48;4992;4992;
72485;PMS5003;60509;47.308;-122.428;2022-08-16T04:32:14;4984;4984;
72485;PMS5003;60509;47.308;-122.428;2022-08-16T04:34:40;5000;5000;
72485;PMS5003;60509;47.308;-122.428;2022-08-16T04:37:05;5000;5000;
72485;PMS5003;60509;47.308;-122.428;2022-08-16T04:39:32;5000;5000;
72485;PMS5003;60509;47.308;-122.428;2022-08-16T04:41:57;4992;4992;
72485;PMS5003;60509;47.308;-122.428;2022-08-16T04:44:23;4984;4984;
72485;PMS5003;60509;47.308;-122.428;2022-08-16T04:46:48;5000;5000;
72485;PMS5003;60509;47.308;-122.428;2022-08-16T04:49:14;4992;4992;
72485;PMS5003;60509;47.308;-122.428;2022-08-16T04:51:40;4992;4992;
72485;PMS5003;60509;47.308;-122.428;2022-08-16T04:54:06;5000;5000;
72485;PMS5003;60509;47.308;-122.428;2022-08-16T04:56:31;4992;4992;
72485;PMS5003;60509;47.308;-122.428;2022-08-16T04:58:57;4984;4984;
72485;PMS5003;60509;47.308;-122.428;2022-08-16T05:01:23;4992;4992;
72485;PMS5003;60509;47.308;-122.428;2022-08-16T05:03:49;4992;4992;
72485;PMS5003;60509;47.308;-122.428;2022-08-16T05:06:14;4992;4992;
72485;PMS5003;60509;47.308;-122.428;2022-08-16T05:08:40;4992;4992;
72485;PMS5003;60509;47.308;-122.428;2022-08-16T05:11:07;4992;4992;
72485;PMS5003;60509;47.308;-122.428;2022-08-16T05:13:32;4984;4984;
72485;PMS5003;60509;47.308;-122.428;2022-08-16T05:15:57;4992;4992;
72485;PMS5003;60509;47.308;-122.428;2022-08-16T05:18:23;5000;5000;
72485;PMS5003;60509;47.308;-122.428;2022-08-16T05:20:49;4984;4984;
72485;PMS5003;60509;47.308;-122.428;2022-08-16T05:23:14;5000;5000;
72485;PMS5003;60509;47.308;-122.428;2022-08-16T05:25:40;4992;4992;
72485;PMS5003;60509;47.308;-122.428;2022-08-16T05:28:06;5000;5000;
72485;PMS5003;60509;47.308;-122.428;2022-08-16T05:30:32;4992;4992;
72485;PMS5003;60509;47.308;-122.428;2022-08-16T05:32:57;4984;4984;
72485;PMS5003;60509;47.308;-122.428;2022-08-16T05:35:23;4984;4984;
72485;PMS5003;60509;47.308;-122.428;2022-08-16T05:37:49;5000;5000;
72485;PMS5003;60509;47.308;-122.428;2022-08-16T05:40:15;4992;4992;
72485;PMS5003;60509;47.308;-122.428;2022-08-16T05:42:41;5000;5000;
72485;PMS5003;60509;47.308;-122.428;2022-08-16T05:45:07;4992;4992;
72485;PMS5003;60509;47.308;-122.428;2022-08-16T05:47:32;4992;4992;
72485;PMS5003;60509;47.308;-122.428;2022-08-16T05:49:58;4992;4992;
72485;PMS5003;60509;47.308;-122.428;2022-08-16T05:52:24;4992;4992;
72485;PMS5003;60509;47.308;-122.428;2022-08-16T05:54:50;4992;4992;
72485;PMS5003;60509;47.308;-122.428;2022-08-16T05:57:16;4992;4992;
72485;PMS5003;60509;47.308;-122.428;2022-08-16T05:59:41;5000;5000;
72485;PMS5003;60509;47.308;-122.428;2022-08-16T06:02:07;5000;5000;
72485;PMS5003;60509;47.308;-122.428;2022-08-16T06:04:33;4992;4992;
72485;PMS5003;60509;47.308;-122.428;2022-08-16T06:06:59;5000;5000;
72485;PMS5003;60509;47.308;-122.428;2022-08-16T06:09:24;4992;4992;
72485;PMS5003;60509;47.308;-122.428;2022-08-16T06:11:50;4992;4992;
72485;PMS5003;60509;47.308;-122.428;2022-08-16T06:14:16;4992;4992;
72485;PMS5003;60509;47.308;-122.428;2022-08-16T06:16:42;4984;4984;
72485;PMS5003;60509;47.308;-122.428;2022-08-16T06:19:08;5000;5000;
72485;PMS5003;60509;47.308;-122.428;2022-08-16T06:21:34;5000;5000;
72485;PMS5003;60509;47.308;-122.428;2022-08-16T06:23:59;4992;4992;
72485;PMS5003;60509;47.308;-122.428;2022-08-16T06:26:25;4976;4976;
72485;PMS5003;60509;47.308;-122.428;2022-08-16T06:28:51;5000;5000;
72485;PMS5003;60509;47.308;-122.428;2022-08-16T06:31:17;5000;5000;
72485;PMS5003;60509;47.308;-122.428;2022-08-16T06:33:43;5000;5000;
72485;PMS5003;60509;47.308;-122.428;2022-08-16T06:36:09;4992;4992;
72485;PMS5003;60509;47.308;-122.428;2022-08-16T06:38:35;4984;4984;
72485;PMS5003;60509;47.308;-122.428;2022-08-16T06:41:01;5000;5000;
72485;PMS5003;60509;47.308;-122.428;2022-08-16T06:43:26;4984;4984;
72485;PMS5003;60509;47.308;-122.428;2022-08-16T06:45:52;5000;5000;
72485;PMS5003;60509;47.308;-122.428;2022-08-16T06:48:18;5000;5000;
72485;PMS5003;60509;47.308;-122.428;2022-08-16T06:50:44;4992;4992;
72485;PMS5003;60509;47.308;-122.428;2022-08-16T06:53:09;5000;5000;
72485;PMS5003;60509;47.308;-122.428;2022-08-16T06:55:35;4992;4992;
72485;PMS5003;60509;47.308;-122.428;2022-08-16T06:58:01;4992;4992;
72485;PMS5003;60509;47.308;-122.428;2022-08-16T07:00:27;4984;4984;
72485;PMS5003;60509;47.308;-122.428;2022-08-16T07:02:53;4992;4992;
72485;PMS5003;60509;47.308;-122.428;2022-08-16T07:05:19;4992;4992;
72485;PMS5003;60509;47.308;-122.428;2022-08-16T07:07:46;4984;4984;
72485;PMS5003;60509;47.308;-122.428;2022-08-16T07:10:11;4992;4992;
72485;PMS5003;60509;47.308;-122.428;2022-08-16T07:12:37;4992;4992;
72485;PMS5003;60509;47.308;-122.428;2022-08-16T07:15:03;5000;5000;
72485;PMS5003;60509;47.308;-122.428;2022-08-16T07:17:28;5000;5000;
72485;PMS5003;60509;47.308;-122.428;2022-08-16T07:19:54;4992;4992;
72485;PMS5003;60509;47.308;-122.428;2022-08-16T07:22:20;5000;5000;
72485;PMS5003;60509;47.308;-122.428;2022-08-16T07:24:46;4992;4992;
72485;PMS5003;60509;47.308;-122.428;2022-08-16T07:27:12;5000;5000;
72485;PMS5003;60509;47.308;-122.428;2022-08-16T07:29:38;4992;4992;
72485;PMS5003;60509;47.308;-122.428;2022-08-16T07:32:04;5000;5000;
72485;PMS5003;60509;47.308;-122.428;2022-08-16T07:34:30;4992;4992;
72485;PMS5003;60509;47.308;-122.428;2022-08-16T07:36:55;4992;4992;
72485;PMS5003;60509;47.308;-122.428;2022-08-16T07:39:21;4984;4984;
72485;PMS5003;60509;47.308;-122.428;2022-08-16T07:41:47;5000;5000;
72485;PMS5003;60509;47.308;-122.428;2022-08-16T07:44:13;4992;4992;
72485;PMS5003;60509;47.308;-122.428;2022-08-16T07:46:39;4992;4992;
72485;PMS5003;60509;47.308;-122.428;2022-08-16T07:49:05;4984;4984;
72485;PMS5003;60509;47.308;-122.428;2022-08-16T07:51:31;4992;4992;
72485;PMS5003;60509;47.308;-122.428;2022-08-16T07:53:57;4992;4992;
72485;PMS5003;60509;47.308;-122.428;2022-08-16T07:56:23;4992;4992;
72485;PMS5003;60509;47.308;-122.428;2022-08-16T07:58:49;5000;5000;
72485;PMS5003;60509;47.308;-122.428;2022-08-16T08:01:15;5000;5000;
72485;PMS5003;60509;47.308;-122.428;2022-08-16T08:03:42;5000;5000;
72485;PMS5003;60509;47.308;-122.428;2022-08-16T08:06:07;4992;4992;
72485;PMS5003;60509;47.308;-122.428;2022-08-16T08:08:32;5000;5000;
72485;PMS5003;60509;47.308;-122.428;2022-08-16T08:10:58;4992;4992;
72485;PMS5003;60509;47.308;-122.428;2022-08-16T08:13:25;5000;5000;
72485;PMS5003;60509;47.308;-122.428;2022-08-16T08:15:50;4992;4992;
72485;PMS5003;60509;47.308;-122.428;2022-08-16T08:18:16;4992;4992;
72485;PMS5003;60509;47.308;-122.428;2022-08-16T08:20:42;4992;4992;
72485;PMS5003;60509;47.308;-122.428;2022-08-16T08:23:08;4992;4992;
72485;PMS5003;60509;47.308;-122.428;2022-08-16T08:25:34;5000;5000;
72485;PMS5003;60509;47.308;-122.428;2022-08-16T08:28:00;5000;5000;
72485;PMS5003;60509;47.308;-122.428;2022-08-16T08:30:26;4992;4992;
72485;PMS5003;60509;47.308;-122.428;2022-08-16T08:32:52;5000;5000;
72485;PMS5003;60509;47.308;-122.428;2022-08-16T08:35:18;4992;4992;
72485;PMS5003;60509;47.308;-122.428;2022-08-16T08:37:44;5000;5000;
72485;PMS5003;60509;47.308;-122.428;2022-08-16T08:40:10;5000;5000;
72485;PMS5003;60509;47.308;-122.428;2022-08-16T08:42:36;4992;4992;
72485;PMS5003;60509;47.308;-122.428;2022-08-16T08:45:02;4992;4992;
72485;PMS5003;60509;47.308;-122.428;2022-08-16T08:47:28;5000;5000;
72485;PMS5003;60509;47.308;-122.428;2022-08-16T08:49:54;4992;4992;
72485;PMS5003;60509;47.308;-122.428;2022-08-16T08:52:20;5000;5000;
72485;PMS5003;60509;47.308;-122.428;2022-08-16T08:54:46;4984;4984;
72485;PMS5003;60509;47.308;-122.428;2022-08-16T08:57:12;4992;4992;
72485;PMS5003;60509;47.308;-122.428;2022-08-16T08:59:38;5000;5000;
72485;PMS5003;60509;47.308;-122.428;2022-08-16T09:02:04;5000;5000;
72485;PMS5003;60509;47.308;-122.428;2022-08-16T09:04:30;5000;5000;
72485;PMS5003;60509;47.308;-122.428;2022-08-16T09:06:56;4992;4992;
72485;PMS5003;60509;47.308;-122.428;2022-08-16T09:09:22;5000;5000;
72485;PMS5003;60509;47.308;-122.428;2022-08-16T09:11:49;4992;4992;
72485;PMS5003;60509;47.308;-122.428;2022-08-16T09:14:14;4992;4992;
72485;PMS5003;60509;47.308;-122.428;2022-08-16T09:16:40;4992;4992;
72485;PMS5003;60509;47.308;-122.428;2022-08-16T09:19:06;4984;4984;
72485;PMS5003;60509;47.308;-122.428;2022-08-16T09:21:32;5000;5000;
72485;PMS5003;60509;47.308;-122.428;2022-08-16T09:23:58;4992;4992;
72485;PMS5003;60509;47.308;-122.428;2022-08-16T09:26:24;5000;5000;
72485;PMS5003;60509;47.308;-122.428;2022-08-16T09:28:50;4992;4992;
72485;PMS5003;60509;47.308;-122.428;2022-08-16T09:31:16;4984;4984;
72485;PMS5003;60509;47.308;-122.428;2022-08-16T09:33:42;4992;4992;
72485;PMS5003;60509;47.308;-122.428;2022-08-16T09:36:08;4992;4992;
72485;PMS5003;60509;47.308;-122.428;2022-08-16T09:38:34;4992;4992;
72485;PMS5003;60509;47.308;-122.428;2022-08-16T09:41:00;4992;4992;
72485;PMS5003;60509;47.308;-122.428;2022-08-16T09:43:26;5000;5000;
72485;PMS5003;60509;47.308;-122.428;2022-08-16T09:45:52;4992;4992;
72485;PMS5003;60509;47.308;-122.428;2022-08-16T09:48:17;5000;5000;
72485;PMS5003;60509;47.308;-122.428;2022-08-16T09:50:44;4992;4992;
72485;PMS5003;60509;47.308;-122.428;2022-08-16T09:53:11;4992;4992;
72485;PMS5003;60509;47.308;-122.428;2022-08-16T09:55:35;5000;5000;
72485;PMS5003;60509;47.308;-122.428;2022-08-16T09:58:02;4992;4992;
72485;PMS5003;60509;47.308;-122.428;2022-08-16T10:00:28;5000;5000;
72485;PMS5003;60509;47.308;-122.428;2022-08-16T10:02:54;4992;4992;
72485;PMS5003;60509;47.308;-122.428;2022-08-16T10:05:19;4992;4992;
72485;PMS5003;60509;47.308;-122.428;2022-08-16T10:07:44;4992;4992;
72485;PMS5003;60509;47.308;-122.428;2022-08-16T10:10:09;4992;4992;
72485;PMS5003;60509;47.308;-122.428;2022-08-16T10:12:34;5000;5000;
72485;PMS5003;60509;47.308;-122.428;2022-08-16T10:14:59;5000;5000;
72485;PMS5003;60509;47.308;-122.428;2022-08-16T10:17:25;4992;4992;
72485;PMS5003;60509;47.308;-122.428;2022-08-16T10:19:51;5000;5000;
72485;PMS5003;60509;47.308;-122.428;2022-08-16T10:22:16;5000;5000;
72485;PMS5003;60509;47.308;-122.428;2022-08-16T10:24:41;5000;5000;
72485;PMS5003;60509;47.308;-122.428;2022-08-16T10:27:06;4992;4992;
72485;PMS5003;60509;47.308;-122.428;2022-08-16T10:29:31;5000;5000;
72485;PMS5003;60509;47.308;-122.428;2022-08-16T10:31:57;5000;5000;
72485;PMS5003;60509;47.308;-122.428;2022-08-16T10:34:23;5000;5000;
72485;PMS5003;60509;47.308;-122.428;2022-08-16T10:36:49;5000;5000;
72485;PMS5003;60509;47.308;-122.428;2022-08-16T10:39:15;4992;4992;
72485;PMS5003;60509;47.308;-122.428;2022-08-16T10:41:39;4992;4992;
72485;PMS5003;60509;47.308;-122.428;2022-08-16T10:44:06;5000;5000;
72485;PMS5003;60509;47.308;-122.428;2022-08-16T10:46:32;4992;4992;
72485;PMS5003;60509;47.308;-122.428;2022-08-16T10:48:58;4984;4984;
72485;PMS5003;60509;47.308;-122.428;2022-08-16T10:51:24;4992;4992;
72485;PMS5003;60509;47.308;-122.428;2022-08-16T10:53:50;5000;5000;
72485;PMS5003;60509;47.308;-122.428;2022-08-16T10:56:16;4992;4992;
72485;PMS5003;60509;47.308;-122.428;2022-08-16T10:58:42;5000;5000;
72485;PMS5003;60509;47.308;-122.428;2022-08-16T11:01:08;4992;4992;
72485;PMS5003;60509;47.308;-122.428;2022-08-16T11:03:32;4992;4992;
72485;PMS5003;60509;47.308;-122.428;2022-08-16T11:05:58;4984;4984;
72485;PMS5003;60509;47.308;-122.428;2022-08-16T11:08:23;4992;4992;
72485;PMS5003;60509;47.308;-122.428;2022-08-16T11:10:48;5000;5000;
72485;PMS5003;60509;47.308;-122.428;2022-08-16T11:13:14;4992;4992;
72485;PMS5003;60509;47.308;-122.428;2022-08-16T11:15:38;4984;4984;
72485;PMS5003;60509;47.308;-122.428;2022-08-16T11:18:03;4992;4992;
72485;PMS5003;60509;47.308;-122.428;2022-08-16T11:20:28;5000;5000;
72485;PMS5003;60509;47.308;-122.428;2022-08-16T11:22:53;4984;4984;
72485;PMS5003;60509;47.308;-122.428;2022-08-16T11:25:19;5000;5000;
72485;PMS5003;60509;47.308;-122.428;2022-08-16T11:27:44;4984;4984;
72485;PMS5003;60509;47.308;-122.428;2022-08-16T11:30:11;5000;5000;
72485;PMS5003;60509;47.308;-122.428;2022-08-16T11:32:36;5000;5000;
72485;PMS5003;60509;47.308;-122.428;2022-08-16T11:35:03;4992;4992;
72485;PMS5003;60509;47.308;-122.428;2022-08-16T11:37:27;4992;4992;
72485;PMS5003;60509;47.308;-122.428;2022-08-16T11:39:53;5000;5000;
72485;PMS5003;60509;47.308;-122.428;2022-08-16T11:42:19;4992;4992;
72485;PMS5003;60509;47.308;-122.428;2022-08-16T11:44:45;5000;5000;
72485;PMS5003;60509;47.308;-122.428;2022-08-16T11:47:11;5000;5000;
72485;PMS5003;60509;47.308;-122.428;2022-08-16T11:49:37;4984;4984;
72485;PMS5003;60509;47.308;-122.428;2022-08-16T11:52:03;4992;4992;
72485;PMS5003;60509;47.308;-122.428;2022-08-16T11:54:29;5000;5000;
72485;PMS5003;60509;47.308;-122.428;2022-08-16T11:56:55;4992;4992;
72485;PMS5003;60509;47.308;-122.428;2022-08-16T11:59:21;4992;4992;
72485;PMS5003;60509;47.308;-122.428;2022-08-16T12:01:47;4992;4992;
72485;PMS5003;60509;47.308;-122.428;2022-08-16T12:04:13;5000;5000;
72485;PMS5003;60509;47.308;-122.428;2022-08-16T12:06:39;4992;4992;
72485;PMS5003;60509;47.308;-122.428;2022-08-16T12:09:05;5000;5000;
72485;PMS5003;60509;47.308;-122.428;2022-08-16T12:11:31;4984;4984;
72485;PMS5003;60509;47.308;-122.428;2022-08-16T12:13:56;5000;5000;
72485;PMS5003;60509;47.308;-122.428;2022-08-16T12:16:22;5000;5000;
72485;PMS5003;60509;47.308;-122.428;2022-08-16T12:18:48;5000;5000;
72485;PMS5003;60509;47.308;-122.428;2022-08-16T12:21:15;5000;5000;
72485;PMS5003;60509;47.308;-122.428;2022-08-16T12:23:40;5000;5000;
72485;PMS5003;60509;47.308;-122.428;2022-08-16T12:26:06;4992;4992;
72485;PMS5003;60509;47.308;-122.428;2022-08-16T12:28:32;4992;4992;
72485;PMS5003;60509;47.308;-122.428;2022-08-16T12:30:58;5000;5000;
72485;PMS5003;60509;47.308;-122.428;2022-08-16T12:33:24;5000;5000;
72485;PMS5003;60509;47.308;-122.428;2022-08-16T12:35:50;4992;4992;
72485;PMS5003;60509;47.308;-122.428;2022-08-16T12:38:16;4992;4992;
72485;PMS5003;60509;47.308;-122.428;2022-08-16T12:40:42;4984;4984;
72485;PMS5003;60509;47.308;-122.428;2022-08-16T12:43:08;5000;5000;
72485;PMS5003;60509;47.308;-122.428;2022-08-16T12:45:34;4992;4992;
72485;PMS5003;60509;47.308;-122.428;2022-08-16T12:47:59;5000;5000;
72485;PMS5003;60509;47.308;-122.428;2022-08-16T12:50:24;5000;5000;
72485;PMS5003;60509;47.308;-122.428;2022-08-16T12:52:50;4992;4992;
72485;PMS5003;60509;47.308;-122.428;2022-08-16T12:55:15;4984;4984;
72485;PMS5003;60509;47.308;-122.428;2022-08-16T12:57:41;4984;4984;
72485;PMS5003;60509;47.308;-122.428;2022-08-16T13:00:10;4984;4984;
72485;PMS5003;60509;47.308;-122.428;2022-08-16T13:02:33;4992;4992;
72485;PMS5003;60509;47.308;-122.428;2022-08-16T13:04:58;4992;4992;
72485;PMS5003;60509;47.308;-122.428;2022-08-16T13:07:24;4984;4984;
72485;PMS5003;60509;47.308;-122.428;2022-08-16T13:09:49;4992;4992;
72485;PMS5003;60509;47.308;-122.428;2022-08-16T13:12:14;5000;5000;
72485;PMS5003;60509;47.308;-122.428;2022-08-16T13:14:40;4992;4992;
72485;PMS5003;60509;47.308;-122.428;2022-08-16T13:17:06;4992;4992;
72485;PMS5003;60509;47.308;-122.428;2022-08-16T13:19:30;4992;4992;
72485;PMS5003;60509;47.308;-122.428;2022-08-16T13:21:55;4992;4992;
72485;PMS5003;60509;47.308;-122.428;2022-08-16T13:24:21;4992;4992;
72485;PMS5003;60509;47.308;-122.428;2022-08-16T13:26:46;4992;4992;
72485;PMS5003;60509;47.308;-122.428;2022-08-16T13:29:12;5000;5000;
72485;PMS5003;60509;47.308;-122.428;2022-08-16T13:31:39;5000;5000;
72485;PMS5003;60509;47.308;-122.428;2022-08-16T13:34:04;5000;5000;
72485;PMS5003;60509;47.308;-122.428;2022-08-16T13:36:31;4992;4992;
72485;PMS5003;60509;47.308;-122.428;2022-08-16T13:38:55;5000;5000;
72485;PMS5003;60509;47.308;-122.428;2022-08-16T13:41:21;5000;5000;
72485;PMS5003;60509;47.308;-122.428;2022-08-16T13:43:45;4992;4992;
72485;PMS5003;60509;47.308;-122.428;2022-08-16T13:46:11;4992;4992;
72485;PMS5003;60509;47.308;-122.428;2022-08-16T13:48:36;5000;5000;
72485;PMS5003;60509;47.308;-122.428;2022-08-16T13:51:02;4992;4992;
72485;PMS5003;60509;47.308;-122.428;2022-08-16T13:53:27;4992;4992;
72485;PMS5003;60509;47.308;-122.428;2022-08-16T13:55:52;5000;5000;
72485;PMS5003;60509;47.308;-122.428;2022-08-16T13:58:17;4992;4992;
72485;PMS5003;60509;47.308;-122.428;2022-08-16T14:00:42;4984;4984;
72485;PMS5003;60509;47.308;-122.428;2022-08-16T14:03:07;4992;4992;
72485;PMS5003;60509;47.308;-122.428;2022-08-16T14:05:32;4984;4984;
72485;PMS5003;60509;47.308;-122.428;2022-08-16T14:07:57;4992;4992;
72485;PMS5003;60509;47.308;-122.428;2022-08-16T14:10:22;5000;5000;
72485;PMS5003;60509;47.308;-122.428;2022-08-16T14:12:47;5000;5000;
72485;PMS5003;60509;47.308;-122.428;2022-08-16T14:15:13;4984;4984;
72485;PMS5003;60509;47.308;-122.428;2022-08-16T14:17:39;4992;4992;
72485;PMS5003;60509;47.308;-122.428;2022-08-16T14:20:05;4992;4992;
72485;PMS5003;60509;47.308;-122.428;2022-08-16T14:22:30;4992;4992;
72485;PMS5003;60509;47.308;-122.428;2022-08-16T14:24:55;4984;4984;
72485;PMS5003;60509;47.308;-122.428;2022-08-16T14:27:21;5000;5000;
72485;PMS5003;60509;47.308;-122.428;2022-08-16T14:29:44;4992;4992;
72485;PMS5003;60509;47.308;-122.428;2022-08-16T14:32:09;4992;4992;
72485;PMS5003;60509;47.308;-122.428;2022-08-16T14:34:35;5000;5000;
72485;PMS5003;60509;47.308;-122.428;2022-08-16T14:37:00;5000;5000;